<?xml version='1.0' encoding='UTF-8'?><gpx version="1.1" creator="JPX - https://github.com/jenetics/jpx" xmlns="http://www.topografix.com/GPX/1/1"><trk><trkseg><trkpt lat="41.9448645" lon="12.5485272"><ele>47.0</ele><time>2026-04-22T06:12:20.272Z</time></trkpt><trkpt lat="41.9449444" lon="12.5485317"><ele>47.0</ele><time>2026-04-22T06:12:28.272Z</time></trkpt><trkpt lat="41.944861" lon="12.5485945"><ele>47.0</ele><time>2026-04-22T06:12:38.273Z</time></trkpt><trkpt lat="41.9447525" lon="12.5485595"><ele>47.0</ele><time>2026-04-22T06:12:40.273Z</time></trkpt><trkpt lat="41.9446906" lon="12.5485409"><ele>47.0</ele><time>2026-04-22T06:12:41.273Z</time></trkpt><trkpt lat="41.9446117" lon="12.5485389"><ele>47.0</ele><time>2026-04-22T06:12:43.273Z</time></trkpt><trkpt lat="41.9445291" lon="12.5484992"><ele>47.0</ele><time>2026-04-22T06:12:47.273Z</time></trkpt><trkpt lat="41.9444645" lon="12.5484744"><ele>47.0</ele><time>2026-04-22T06:12:50.272Z</time></trkpt><trkpt lat="41.9444089" lon="12.5484165"><ele>47.0</ele><time>2026-04-22T06:12:55.273Z</time></trkpt><trkpt lat="41.9444206" lon="12.5482696"><ele>47.0</ele><time>2026-04-22T06:13:07.273Z</time></trkpt><trkpt lat="41.9444541" lon="12.5481585"><ele>47.0</ele><time>2026-04-22T06:13:11.273Z</time></trkpt><trkpt lat="41.9444895" lon="12.5480868"><ele>47.0</ele><time>2026-04-22T06:13:13.273Z</time></trkpt><trkpt lat="41.9445101" lon="12.5479951"><ele>47.400000000000006</ele><time>2026-04-22T06:13:16.272Z</time></trkpt><trkpt lat="41.9445932" lon="12.5478229"><ele>47.800000000000004</ele><time>2026-04-22T06:13:30.273Z</time></trkpt><trkpt lat="41.9445859" lon="12.5477293"><ele>48.2</ele><time>2026-04-22T06:13:32.273Z</time></trkpt><trkpt lat="41.9445865" lon="12.5476368"><ele>48.6</ele><time>2026-04-22T06:13:34.273Z</time></trkpt><trkpt lat="41.9445508" lon="12.5475396"><ele>49.0</ele><time>2026-04-22T06:13:37.273Z</time></trkpt><trkpt lat="41.9444239" lon="12.5474336"><ele>48.99999999999999</ele><time>2026-04-22T06:13:43.273Z</time></trkpt><trkpt lat="41.9443767" lon="12.547376"><ele>49.0</ele><time>2026-04-22T06:13:46.273Z</time></trkpt><trkpt lat="41.9443137" lon="12.547316"><ele>49.0</ele><time>2026-04-22T06:13:51.273Z</time></trkpt><trkpt lat="41.9443053" lon="12.5472278"><ele>49.0</ele><time>2026-04-22T06:13:55.273Z</time></trkpt><trkpt lat="41.9442756" lon="12.5471369"><ele>48.99999999999999</ele><time>2026-04-22T06:13:59.272Z</time></trkpt><trkpt lat="41.9441661" lon="12.5469991"><ele>49.0</ele><time>2026-04-22T06:14:07.273Z</time></trkpt><trkpt lat="41.9441166" lon="12.5469296"><ele>47.666666666666664</ele><time>2026-04-22T06:14:10.273Z</time></trkpt><trkpt lat="41.9440974" lon="12.5468452"><ele>46.33333333333333</ele><time>2026-04-22T06:14:17.273Z</time></trkpt><trkpt lat="41.9440717" lon="12.546758"><ele>45.0</ele><time>2026-04-22T06:14:21.273Z</time></trkpt><trkpt lat="41.9440713" lon="12.5465693"><ele>43.666666666666664</ele><time>2026-04-22T06:14:29.273Z</time></trkpt><trkpt lat="41.9440833" lon="12.5464837"><ele>42.33333333333333</ele><time>2026-04-22T06:14:33.272Z</time></trkpt><trkpt lat="41.9440787" lon="12.5463941"><ele>41.0</ele><time>2026-04-22T06:14:38.273Z</time></trkpt><trkpt lat="41.9440633" lon="12.5463112"><ele>41.0</ele><time>2026-04-22T06:14:42.272Z</time></trkpt><trkpt lat="41.9440683" lon="12.546139"><ele>37.0</ele><time>2026-04-22T06:14:50.273Z</time></trkpt><trkpt lat="41.9440608" lon="12.5460448"><ele>37.0</ele><time>2026-04-22T06:14:55.273Z</time></trkpt><trkpt lat="41.9440399" lon="12.5459628"><ele>37.0</ele><time>2026-04-22T06:14:59.272Z</time></trkpt><trkpt lat="41.9439842" lon="12.5458959"><ele>37.0</ele><time>2026-04-22T06:15:03.273Z</time></trkpt></trkseg><trkseg><trkpt lat="41.9438338" lon="12.5388892"><ele>45.0</ele><time>2026-04-22T06:20:41.275Z</time></trkpt><trkpt lat="41.9438328" lon="12.5387987"><ele>45.0</ele><time>2026-04-22T06:20:46.275Z</time></trkpt><trkpt lat="41.9438591" lon="12.5387101"><ele>45.0</ele><time>2026-04-22T06:20:52.275Z</time></trkpt><trkpt lat="41.9438663" lon="12.5386174"><ele>45.0</ele><time>2026-04-22T06:20:56.275Z</time></trkpt><trkpt lat="41.9438548" lon="12.5385147"><ele>45.0</ele><time>2026-04-22T06:21:01.275Z</time></trkpt><trkpt lat="41.9437994" lon="12.5384355"><ele>45.0</ele><time>2026-04-22T06:21:05.275Z</time></trkpt><trkpt lat="41.9437761" lon="12.5383464"><ele>45.0</ele><time>2026-04-22T06:21:10.275Z</time></trkpt><trkpt lat="41.9437773" lon="12.5382444"><ele>45.285714285714285</ele><time>2026-04-22T06:21:15.275Z</time></trkpt><trkpt lat="41.9437922" lon="12.5381448"><ele>45.57142857142858</ele><time>2026-04-22T06:21:20.275Z</time></trkpt><trkpt lat="41.9438055" lon="12.5380516"><ele>45.85714285714286</ele><time>2026-04-22T06:21:25.274Z</time></trkpt><trkpt lat="41.9438159" lon="12.5379506"><ele>46.14285714285714</ele><time>2026-04-22T06:21:30.275Z</time></trkpt><trkpt lat="41.9438117" lon="12.5378562"><ele>46.42857142857143</ele><time>2026-04-22T06:21:34.274Z</time></trkpt><trkpt lat="41.9438252" lon="12.5377546"><ele>46.714285714285715</ele><time>2026-04-22T06:21:39.275Z</time></trkpt><trkpt lat="41.9438325" lon="12.5376617"><ele>47.0</ele><time>2026-04-22T06:21:45.274Z</time></trkpt><trkpt lat="41.9437656" lon="12.5376084"><ele>46.714285714285715</ele><time>2026-04-22T06:21:51.274Z</time></trkpt><trkpt lat="41.9436953" lon="12.5375849"><ele>46.42857142857143</ele><time>2026-04-22T06:21:55.274Z</time></trkpt><trkpt lat="41.9436393" lon="12.5375385"><ele>46.14285714285714</ele><time>2026-04-22T06:22:00.275Z</time></trkpt><trkpt lat="41.9435749" lon="12.5375165"><ele>45.85714285714286</ele><time>2026-04-22T06:22:05.275Z</time></trkpt><trkpt lat="41.9435103" lon="12.5374724"><ele>45.57142857142858</ele><time>2026-04-22T06:22:14.275Z</time></trkpt><trkpt lat="41.9434513" lon="12.5374296"><ele>45.285714285714285</ele><time>2026-04-22T06:22:21.275Z</time></trkpt><trkpt lat="41.9433819" lon="12.5374079"><ele>45.0</ele><time>2026-04-22T06:22:24.274Z</time></trkpt><trkpt lat="41.9433063" lon="12.53738"><ele>45.0</ele><time>2026-04-22T06:22:30.274Z</time></trkpt><trkpt lat="41.9432369" lon="12.5373409"><ele>45.0</ele><time>2026-04-22T06:22:35.275Z</time></trkpt><trkpt lat="41.9432077" lon="12.537264"><ele>45.0</ele><time>2026-04-22T06:22:40.275Z</time></trkpt><trkpt lat="41.9431668" lon="12.5371806"><ele>45.0</ele><time>2026-04-22T06:22:46.275Z</time></trkpt><trkpt lat="41.9430883" lon="12.5371669"><ele>45.0</ele><time>2026-04-22T06:22:52.274Z</time></trkpt><trkpt lat="41.9430058" lon="12.537195"><ele>45.0</ele><time>2026-04-22T06:22:55.275Z</time></trkpt><trkpt lat="41.9429278" lon="12.5372022"><ele>45.0</ele><time>2026-04-22T06:22:58.275Z</time></trkpt><trkpt lat="41.9428621" lon="12.5371879"><ele>45.0</ele><time>2026-04-22T06:23:01.275Z</time></trkpt><trkpt lat="41.9428159" lon="12.5371171"><ele>45.0</ele><time>2026-04-22T06:23:06.275Z</time></trkpt><trkpt lat="41.9427879" lon="12.5370381"><ele>45.0</ele><time>2026-04-22T06:23:10.275Z</time></trkpt><trkpt lat="41.942722" lon="12.5369693"><ele>45.0</ele><time>2026-04-22T06:23:15.275Z</time></trkpt><trkpt lat="41.9426539" lon="12.5369278"><ele>45.0</ele><time>2026-04-22T06:23:19.275Z</time></trkpt><trkpt lat="41.942589" lon="12.5368822"><ele>45.0</ele><time>2026-04-22T06:23:25.275Z</time></trkpt><trkpt lat="41.9425635" lon="12.536794"><ele>45.0</ele><time>2026-04-22T06:23:30.275Z</time></trkpt><trkpt lat="41.94256" lon="12.5366994"><ele>45.0</ele><time>2026-04-22T06:23:35.274Z</time></trkpt><trkpt lat="41.9425974" lon="12.5366266"><ele>45.0</ele><time>2026-04-22T06:23:39.274Z</time></trkpt><trkpt lat="41.9426289" lon="12.5365491"><ele>45.0</ele><time>2026-04-22T06:23:43.274Z</time></trkpt><trkpt lat="41.942671" lon="12.536468"><ele>45.0</ele><time>2026-04-22T06:23:47.274Z</time></trkpt><trkpt lat="41.9426978" lon="12.5363747"><ele>45.0</ele><time>2026-04-22T06:23:52.275Z</time></trkpt><trkpt lat="41.9427093" lon="12.5362906"><ele>45.0</ele><time>2026-04-22T06:23:57.275Z</time></trkpt><trkpt lat="41.9427308" lon="12.5361999"><ele>45.0</ele><time>2026-04-22T06:24:02.274Z</time></trkpt><trkpt lat="41.9427599" lon="12.5361032"><ele>45.0</ele><time>2026-04-22T06:24:07.274Z</time></trkpt><trkpt lat="41.9427901" lon="12.5360128"><ele>45.0</ele><time>2026-04-22T06:24:11.275Z</time></trkpt><trkpt lat="41.9428452" lon="12.5359388"><ele>45.0</ele><time>2026-04-22T06:24:16.275Z</time></trkpt><trkpt lat="41.942836" lon="12.5358413"><ele>45.0</ele><time>2026-04-22T06:24:20.275Z</time></trkpt><trkpt lat="41.9428127" lon="12.5357575"><ele>45.0</ele><time>2026-04-22T06:24:25.274Z</time></trkpt><trkpt lat="41.9427443" lon="12.5357157"><ele>45.0</ele><time>2026-04-22T06:24:31.275Z</time></trkpt><trkpt lat="41.9426726" lon="12.5356973"><ele>45.0</ele><time>2026-04-22T06:24:35.274Z</time></trkpt><trkpt lat="41.9426191" lon="12.5356118"><ele>45.0</ele><time>2026-04-22T06:24:40.275Z</time></trkpt><trkpt lat="41.9425822" lon="12.5355258"><ele>45.0</ele><time>2026-04-22T06:24:43.275Z</time></trkpt><trkpt lat="41.9425353" lon="12.5354464"><ele>45.0</ele><time>2026-04-22T06:24:47.274Z</time></trkpt><trkpt lat="41.9424828" lon="12.5353756"><ele>45.0</ele><time>2026-04-22T06:24:51.275Z</time></trkpt><trkpt lat="41.9424419" lon="12.535294"><ele>45.0</ele><time>2026-04-22T06:24:56.275Z</time></trkpt><trkpt lat="41.9424041" lon="12.5352113"><ele>45.42857142857142</ele><time>2026-04-22T06:25:01.275Z</time></trkpt><trkpt lat="41.9424029" lon="12.5351232"><ele>45.85714285714286</ele><time>2026-04-22T06:25:06.275Z</time></trkpt><trkpt lat="41.9424007" lon="12.5350318"><ele>46.285714285714285</ele><time>2026-04-22T06:25:10.274Z</time></trkpt><trkpt lat="41.9423939" lon="12.5349278"><ele>46.71428571428571</ele><time>2026-04-22T06:25:15.275Z</time></trkpt><trkpt lat="41.9423605" lon="12.5348349"><ele>47.14285714285714</ele><time>2026-04-22T06:25:20.275Z</time></trkpt><trkpt lat="41.9423302" lon="12.534756"><ele>47.57142857142857</ele><time>2026-04-22T06:25:24.275Z</time></trkpt><trkpt lat="41.9422996" lon="12.5346664"><ele>48.0</ele><time>2026-04-22T06:25:28.275Z</time></trkpt><trkpt lat="41.9422751" lon="12.5345787"><ele>47.8</ele><time>2026-04-22T06:25:33.275Z</time></trkpt><trkpt lat="41.9423809" lon="12.5344829"><ele>47.599999999999994</ele><time>2026-04-22T06:26:00.028Z</time></trkpt><trkpt lat="41.942408" lon="12.5344063"><ele>47.400000000000006</ele><time>2026-04-22T06:26:01.028Z</time></trkpt><trkpt lat="41.9424298" lon="12.5342944"><ele>47.2</ele><time>2026-04-22T06:26:03.028Z</time></trkpt><trkpt lat="41.9424826" lon="12.5342104"><ele>47.0</ele><time>2026-04-22T06:26:04.028Z</time></trkpt><trkpt lat="41.9425731" lon="12.5340969"><ele>47.0</ele><time>2026-04-22T06:26:05.028Z</time></trkpt><trkpt lat="41.9426163" lon="12.5340213"><ele>47.0</ele><time>2026-04-22T06:26:10.276Z</time></trkpt><trkpt lat="41.9426578" lon="12.5339557"><ele>47.0</ele><time>2026-04-22T06:26:15.277Z</time></trkpt><trkpt lat="41.9426924" lon="12.5338713"><ele>47.0</ele><time>2026-04-22T06:26:20.276Z</time></trkpt><trkpt lat="41.9405491" lon="12.5283091"><ele>44.857142857142854</ele><time>2026-04-22T06:32:13.873Z</time></trkpt><trkpt lat="41.9404634" lon="12.5282955"><ele>42.71428571428571</ele><time>2026-04-22T06:32:21.874Z</time></trkpt><trkpt lat="41.9404077" lon="12.528237"><ele>40.57142857142857</ele><time>2026-04-22T06:32:26.273Z</time></trkpt><trkpt lat="41.9404055" lon="12.5281507"><ele>38.42857142857143</ele><time>2026-04-22T06:32:28.273Z</time></trkpt><trkpt lat="41.9403771" lon="12.5280657"><ele>36.285714285714285</ele><time>2026-04-22T06:32:33.273Z</time></trkpt><trkpt lat="41.9403016" lon="12.5280263"><ele>34.14285714285714</ele><time>2026-04-22T06:32:37.273Z</time></trkpt><trkpt lat="41.9402393" lon="12.5279768"><ele>32.0</ele><time>2026-04-22T06:32:41.273Z</time></trkpt><trkpt lat="41.9401746" lon="12.5279627"><ele>32.0</ele><time>2026-04-22T06:32:44.272Z</time></trkpt><trkpt lat="41.9401328" lon="12.5278986"><ele>31.999999999999996</ele><time>2026-04-22T06:32:50.273Z</time></trkpt><trkpt lat="41.940085" lon="12.527842"><ele>32.0</ele><time>2026-04-22T06:32:54.272Z</time></trkpt><trkpt lat="41.940019" lon="12.5277961"><ele>32.0</ele><time>2026-04-22T06:32:58.273Z</time></trkpt><trkpt lat="41.9399747" lon="12.5277345"><ele>31.999999999999996</ele><time>2026-04-22T06:33:01.273Z</time></trkpt><trkpt lat="41.9399066" lon="12.5277271"><ele>32.0</ele><time>2026-04-22T06:33:04.273Z</time></trkpt><trkpt lat="41.9398413" lon="12.5276854"><ele>32.0</ele><time>2026-04-22T06:33:08.272Z</time></trkpt><trkpt lat="41.93978" lon="12.5276552"><ele>32.285714285714285</ele><time>2026-04-22T06:33:11.273Z</time></trkpt><trkpt lat="41.9397107" lon="12.5276127"><ele>32.57142857142857</ele><time>2026-04-22T06:33:17.273Z</time></trkpt><trkpt lat="41.9396626" lon="12.527539"><ele>32.857142857142854</ele><time>2026-04-22T06:33:22.273Z</time></trkpt><trkpt lat="41.9396422" lon="12.5274492"><ele>33.14285714285714</ele><time>2026-04-22T06:33:25.273Z</time></trkpt><trkpt lat="41.9395725" lon="12.5274027"><ele>33.42857142857143</ele><time>2026-04-22T06:33:30.273Z</time></trkpt><trkpt lat="41.9394996" lon="12.5273624"><ele>33.71428571428571</ele><time>2026-04-22T06:33:35.272Z</time></trkpt><trkpt lat="41.9394452" lon="12.5273126"><ele>34.0</ele><time>2026-04-22T06:33:40.273Z</time></trkpt><trkpt lat="41.9393877" lon="12.5272775"><ele>33.99999999999999</ele><time>2026-04-22T06:33:44.273Z</time></trkpt><trkpt lat="41.9393206" lon="12.5272192"><ele>34.0</ele><time>2026-04-22T06:33:49.274Z</time></trkpt><trkpt lat="41.9392746" lon="12.5271612"><ele>34.0</ele><time>2026-04-22T06:33:53.274Z</time></trkpt><trkpt lat="41.9392169" lon="12.5270995"><ele>34.0</ele><time>2026-04-22T06:33:59.274Z</time></trkpt><trkpt lat="41.9391584" lon="12.5270371"><ele>34.0</ele><time>2026-04-22T06:34:04.274Z</time></trkpt><trkpt lat="41.9391057" lon="12.5269855"><ele>33.99999999999999</ele><time>2026-04-22T06:34:08.274Z</time></trkpt><trkpt lat="41.9390928" lon="12.5268961"><ele>34.0</ele><time>2026-04-22T06:34:14.274Z</time></trkpt><trkpt lat="41.9390729" lon="12.5268087"><ele>33.857142857142854</ele><time>2026-04-22T06:34:23.274Z</time></trkpt><trkpt lat="41.9390166" lon="12.526739"><ele>33.714285714285715</ele><time>2026-04-22T06:34:26.273Z</time></trkpt><trkpt lat="41.9389606" lon="12.526676"><ele>33.57142857142857</ele><time>2026-04-22T06:34:29.274Z</time></trkpt><trkpt lat="41.9389096" lon="12.5266217"><ele>33.42857142857143</ele><time>2026-04-22T06:34:32.274Z</time></trkpt><trkpt lat="41.9388479" lon="12.5265832"><ele>33.285714285714285</ele><time>2026-04-22T06:34:36.274Z</time></trkpt><trkpt lat="41.9387919" lon="12.5265379"><ele>33.14285714285714</ele><time>2026-04-22T06:34:40.274Z</time></trkpt><trkpt lat="41.9387254" lon="12.5264711"><ele>33.0</ele><time>2026-04-22T06:34:45.273Z</time></trkpt><trkpt lat="41.938671" lon="12.5264178"><ele>33.0</ele><time>2026-04-22T06:34:49.274Z</time></trkpt><trkpt lat="41.9386235" lon="12.5263535"><ele>33.0</ele><time>2026-04-22T06:34:53.274Z</time></trkpt><trkpt lat="41.9385619" lon="12.5262939"><ele>33.0</ele><time>2026-04-22T06:34:58.274Z</time></trkpt><trkpt lat="41.9385085" lon="12.5262313"><ele>33.0</ele><time>2026-04-22T06:35:03.274Z</time></trkpt><trkpt lat="41.938459" lon="12.5261586"><ele>33.0</ele><time>2026-04-22T06:35:09.273Z</time></trkpt><trkpt lat="41.9384046" lon="12.5261067"><ele>33.0</ele><time>2026-04-22T06:35:13.274Z</time></trkpt><trkpt lat="41.9383483" lon="12.5260671"><ele>33.0</ele><time>2026-04-22T06:35:17.273Z</time></trkpt><trkpt lat="41.9382859" lon="12.5260182"><ele>31.285714285714285</ele><time>2026-04-22T06:35:21.274Z</time></trkpt><trkpt lat="41.9382309" lon="12.5259696"><ele>29.571428571428573</ele><time>2026-04-22T06:35:25.273Z</time></trkpt><trkpt lat="41.9381699" lon="12.5259151"><ele>27.857142857142858</ele><time>2026-04-22T06:35:30.274Z</time></trkpt><trkpt lat="41.9381151" lon="12.5258691"><ele>26.142857142857142</ele><time>2026-04-22T06:35:34.274Z</time></trkpt><trkpt lat="41.9380551" lon="12.5258217"><ele>24.42857142857143</ele><time>2026-04-22T06:35:38.274Z</time></trkpt><trkpt lat="41.9379845" lon="12.5257794"><ele>22.714285714285715</ele><time>2026-04-22T06:35:43.274Z</time></trkpt><trkpt lat="41.9379388" lon="12.5257178"><ele>21.0</ele><time>2026-04-22T06:35:47.273Z</time></trkpt><trkpt lat="41.9378899" lon="12.5256633"><ele>21.0</ele><time>2026-04-22T06:35:53.274Z</time></trkpt><trkpt lat="41.9378537" lon="12.5255915"><ele>21.0</ele><time>2026-04-22T06:35:58.274Z</time></trkpt><trkpt lat="41.9378019" lon="12.5255335"><ele>21.0</ele><time>2026-04-22T06:36:02.274Z</time></trkpt><trkpt lat="41.9377448" lon="12.5254859"><ele>21.0</ele><time>2026-04-22T06:36:06.274Z</time></trkpt><trkpt lat="41.9377046" lon="12.5254046"><ele>21.0</ele><time>2026-04-22T06:36:10.273Z</time></trkpt><trkpt lat="41.9376667" lon="12.525326"><ele>21.0</ele><time>2026-04-22T06:36:14.274Z</time></trkpt><trkpt lat="41.9376204" lon="12.5252647"><ele>21.0</ele><time>2026-04-22T06:36:18.274Z</time></trkpt><trkpt lat="41.937567" lon="12.5251999"><ele>21.428571428571427</ele><time>2026-04-22T06:36:23.274Z</time></trkpt><trkpt lat="41.9375107" lon="12.5251492"><ele>21.857142857142858</ele><time>2026-04-22T06:36:28.274Z</time></trkpt><trkpt lat="41.9374526" lon="12.5251066"><ele>22.285714285714285</ele><time>2026-04-22T06:36:33.274Z</time></trkpt><trkpt lat="41.9373896" lon="12.5250538"><ele>22.714285714285715</ele><time>2026-04-22T06:36:38.274Z</time></trkpt><trkpt lat="41.9373221" lon="12.5250234"><ele>23.142857142857142</ele><time>2026-04-22T06:36:43.274Z</time></trkpt><trkpt lat="41.937261" lon="12.5249886"><ele>23.57142857142857</ele><time>2026-04-22T06:36:47.274Z</time></trkpt><trkpt lat="41.9372031" lon="12.5249386"><ele>24.0</ele><time>2026-04-22T06:36:51.274Z</time></trkpt><trkpt lat="41.9371426" lon="12.5248917"><ele>23.999999999999996</ele><time>2026-04-22T06:36:55.273Z</time></trkpt><trkpt lat="41.9370756" lon="12.5248484"><ele>24.0</ele><time>2026-04-22T06:36:59.274Z</time></trkpt><trkpt lat="41.9370135" lon="12.524801"><ele>24.0</ele><time>2026-04-22T06:37:04.274Z</time></trkpt><trkpt lat="41.9369521" lon="12.524747"><ele>24.0</ele><time>2026-04-22T06:37:09.274Z</time></trkpt><trkpt lat="41.9369025" lon="12.5246797"><ele>24.0</ele><time>2026-04-22T06:37:14.274Z</time></trkpt><trkpt lat="41.9368428" lon="12.5246184"><ele>23.999999999999996</ele><time>2026-04-22T06:37:19.274Z</time></trkpt><trkpt lat="41.9367889" lon="12.5245615"><ele>24.0</ele><time>2026-04-22T06:37:24.273Z</time></trkpt><trkpt lat="41.9367318" lon="12.5244939"><ele>23.999999999999996</ele><time>2026-04-22T06:37:28.274Z</time></trkpt><trkpt lat="41.9366778" lon="12.524441"><ele>24.0</ele><time>2026-04-22T06:37:32.274Z</time></trkpt><trkpt lat="41.9366219" lon="12.5243777"><ele>24.0</ele><time>2026-04-22T06:37:37.274Z</time></trkpt><trkpt lat="41.9365699" lon="12.5243012"><ele>24.0</ele><time>2026-04-22T06:37:42.274Z</time></trkpt><trkpt lat="41.9365206" lon="12.5242347"><ele>24.0</ele><time>2026-04-22T06:37:47.274Z</time></trkpt><trkpt lat="41.9364785" lon="12.52417"><ele>23.999999999999996</ele><time>2026-04-22T06:37:51.274Z</time></trkpt><trkpt lat="41.9364241" lon="12.5241003"><ele>24.0</ele><time>2026-04-22T06:37:56.274Z</time></trkpt><trkpt lat="41.9363874" lon="12.5240212"><ele>23.999999999999996</ele><time>2026-04-22T06:38:00.274Z</time></trkpt><trkpt lat="41.9363358" lon="12.5239551"><ele>24.0</ele><time>2026-04-22T06:38:04.274Z</time></trkpt><trkpt lat="41.9362798" lon="12.5238984"><ele>24.0</ele><time>2026-04-22T06:38:08.274Z</time></trkpt><trkpt lat="41.936225" lon="12.5238539"><ele>24.0</ele><time>2026-04-22T06:38:12.273Z</time></trkpt><trkpt lat="41.9361826" lon="12.5237756"><ele>24.0</ele><time>2026-04-22T06:38:16.273Z</time></trkpt><trkpt lat="41.9361296" lon="12.5236941"><ele>23.999999999999996</ele><time>2026-04-22T06:38:21.273Z</time></trkpt><trkpt lat="41.9361153" lon="12.5236039"><ele>24.0</ele><time>2026-04-22T06:38:26.274Z</time></trkpt><trkpt lat="41.9360457" lon="12.5235815"><ele>23.999999999999996</ele><time>2026-04-22T06:38:31.274Z</time></trkpt><trkpt lat="41.9360102" lon="12.5236685"><ele>24.0</ele><time>2026-04-22T06:38:36.273Z</time></trkpt><trkpt lat="41.9360351" lon="12.5237528"><ele>24.0</ele><time>2026-04-22T06:38:41.274Z</time></trkpt><trkpt lat="41.9360714" lon="12.5238306"><ele>24.0</ele><time>2026-04-22T06:38:46.273Z</time></trkpt><trkpt lat="41.9360689" lon="12.5239301"><ele>24.0</ele><time>2026-04-22T06:38:53.274Z</time></trkpt><trkpt lat="41.9360001" lon="12.5239328"><ele>23.999999999999996</ele><time>2026-04-22T06:39:03.274Z</time></trkpt><trkpt lat="41.9359525" lon="12.5238725"><ele>24.0</ele><time>2026-04-22T06:39:07.274Z</time></trkpt><trkpt lat="41.935904" lon="12.5238137"><ele>23.999999999999996</ele><time>2026-04-22T06:39:12.274Z</time></trkpt><trkpt lat="41.9358596" lon="12.5237422"><ele>24.0</ele><time>2026-04-22T06:39:16.273Z</time></trkpt><trkpt lat="41.9358063" lon="12.5236914"><ele>24.0</ele><time>2026-04-22T06:39:20.274Z</time></trkpt><trkpt lat="41.9357493" lon="12.5236455"><ele>24.0</ele><time>2026-04-22T06:39:24.274Z</time></trkpt><trkpt lat="41.9357" lon="12.5235629"><ele>24.0</ele><time>2026-04-22T06:39:29.274Z</time></trkpt><trkpt lat="41.935655" lon="12.5235034"><ele>23.999999999999996</ele><time>2026-04-22T06:39:33.274Z</time></trkpt><trkpt lat="41.9355988" lon="12.5234464"><ele>24.0</ele><time>2026-04-22T06:39:39.274Z</time></trkpt><trkpt lat="41.935547" lon="12.5233979"><ele>23.428571428571427</ele><time>2026-04-22T06:39:43.274Z</time></trkpt><trkpt lat="41.9354955" lon="12.523322"><ele>22.857142857142858</ele><time>2026-04-22T06:39:47.274Z</time></trkpt><trkpt lat="41.9354372" lon="12.5232569"><ele>22.285714285714285</ele><time>2026-04-22T06:39:51.274Z</time></trkpt><trkpt lat="41.9353822" lon="12.5231862"><ele>21.714285714285715</ele><time>2026-04-22T06:39:55.274Z</time></trkpt><trkpt lat="41.9353242" lon="12.5231265"><ele>21.142857142857142</ele><time>2026-04-22T06:40:00.274Z</time></trkpt><trkpt lat="41.935267" lon="12.5230752"><ele>20.57142857142857</ele><time>2026-04-22T06:40:05.273Z</time></trkpt><trkpt lat="41.9352215" lon="12.5230143"><ele>20.0</ele><time>2026-04-22T06:40:10.273Z</time></trkpt><trkpt lat="41.9351617" lon="12.5229643"><ele>20.0</ele><time>2026-04-22T06:40:14.274Z</time></trkpt><trkpt lat="41.9351086" lon="12.5228986"><ele>20.0</ele><time>2026-04-22T06:40:19.274Z</time></trkpt><trkpt lat="41.9350596" lon="12.5228334"><ele>20.0</ele><time>2026-04-22T06:40:23.274Z</time></trkpt><trkpt lat="41.9349934" lon="12.5227706"><ele>20.0</ele><time>2026-04-22T06:40:27.274Z</time></trkpt><trkpt lat="41.934943" lon="12.5227062"><ele>20.0</ele><time>2026-04-22T06:40:31.274Z</time></trkpt><trkpt lat="41.9348876" lon="12.5226516"><ele>20.0</ele><time>2026-04-22T06:40:35.274Z</time></trkpt><trkpt lat="41.9348336" lon="12.5226016"><ele>20.0</ele><time>2026-04-22T06:40:39.273Z</time></trkpt><trkpt lat="41.9347761" lon="12.5225501"><ele>20.857142857142858</ele><time>2026-04-22T06:40:46.274Z</time></trkpt><trkpt lat="41.934718" lon="12.5224878"><ele>21.714285714285715</ele><time>2026-04-22T06:40:52.273Z</time></trkpt><trkpt lat="41.9346678" lon="12.5224358"><ele>22.57142857142857</ele><time>2026-04-22T06:40:55.274Z</time></trkpt><trkpt lat="41.9346263" lon="12.5223617"><ele>23.42857142857143</ele><time>2026-04-22T06:40:59.273Z</time></trkpt><trkpt lat="41.9345707" lon="12.5222899"><ele>24.28571428571429</ele><time>2026-04-22T06:41:04.274Z</time></trkpt><trkpt lat="41.9345019" lon="12.5222294"><ele>25.142857142857142</ele><time>2026-04-22T06:41:08.273Z</time></trkpt><trkpt lat="41.9344376" lon="12.52217"><ele>26.0</ele><time>2026-04-22T06:41:13.274Z</time></trkpt><trkpt lat="41.9343807" lon="12.5221321"><ele>26.0</ele><time>2026-04-22T06:41:17.274Z</time></trkpt><trkpt lat="41.9343332" lon="12.5220683"><ele>26.0</ele><time>2026-04-22T06:41:21.274Z</time></trkpt><trkpt lat="41.9342946" lon="12.5220009"><ele>26.0</ele><time>2026-04-22T06:41:25.274Z</time></trkpt><trkpt lat="41.9342447" lon="12.5219313"><ele>26.0</ele><time>2026-04-22T06:41:30.273Z</time></trkpt><trkpt lat="41.9342007" lon="12.521869"><ele>26.0</ele><time>2026-04-22T06:41:35.274Z</time></trkpt><trkpt lat="41.9341532" lon="12.5218062"><ele>26.0</ele><time>2026-04-22T06:41:39.274Z</time></trkpt><trkpt lat="41.9340993" lon="12.5217557"><ele>26.0</ele><time>2026-04-22T06:41:42.274Z</time></trkpt><trkpt lat="41.9340483" lon="12.521683"><ele>26.428571428571427</ele><time>2026-04-22T06:41:47.274Z</time></trkpt><trkpt lat="41.9339966" lon="12.5216342"><ele>26.85714285714286</ele><time>2026-04-22T06:41:50.274Z</time></trkpt><trkpt lat="41.9339524" lon="12.5215661"><ele>27.28571428571429</ele><time>2026-04-22T06:41:57.274Z</time></trkpt><trkpt lat="41.9338975" lon="12.5215177"><ele>27.714285714285715</ele><time>2026-04-22T06:42:01.273Z</time></trkpt><trkpt lat="41.9338477" lon="12.5214361"><ele>28.142857142857146</ele><time>2026-04-22T06:42:05.273Z</time></trkpt><trkpt lat="41.9337824" lon="12.5213702"><ele>28.571428571428577</ele><time>2026-04-22T06:42:09.273Z</time></trkpt><trkpt lat="41.933714" lon="12.5213179"><ele>29.000000000000004</ele><time>2026-04-22T06:42:13.274Z</time></trkpt><trkpt lat="41.9336605" lon="12.5212632"><ele>28.999999999999996</ele><time>2026-04-22T06:42:18.274Z</time></trkpt><trkpt lat="41.9335817" lon="12.5212351"><ele>29.0</ele><time>2026-04-22T06:42:24.274Z</time></trkpt><trkpt lat="41.9335234" lon="12.521175"><ele>29.0</ele><time>2026-04-22T06:42:30.273Z</time></trkpt><trkpt lat="41.9334827" lon="12.521088"><ele>29.0</ele><time>2026-04-22T06:42:33.274Z</time></trkpt><trkpt lat="41.9334661" lon="12.5210054"><ele>28.999999999999996</ele><time>2026-04-22T06:42:43.274Z</time></trkpt><trkpt lat="41.9334621" lon="12.5208889"><ele>29.0</ele><time>2026-04-22T06:42:48.274Z</time></trkpt><trkpt lat="41.9334617" lon="12.5207905"><ele>29.42857142857143</ele><time>2026-04-22T06:42:50.274Z</time></trkpt><trkpt lat="41.9334753" lon="12.5206909"><ele>29.857142857142858</ele><time>2026-04-22T06:42:52.274Z</time></trkpt><trkpt lat="41.933495" lon="12.5206101"><ele>30.285714285714285</ele><time>2026-04-22T06:42:54.274Z</time></trkpt><trkpt lat="41.9335482" lon="12.5205371"><ele>30.714285714285715</ele><time>2026-04-22T06:42:58.274Z</time></trkpt><trkpt lat="41.9335792" lon="12.5204556"><ele>31.14285714285714</ele><time>2026-04-22T06:43:03.274Z</time></trkpt><trkpt lat="41.9336414" lon="12.5204062"><ele>31.57142857142857</ele><time>2026-04-22T06:43:08.274Z</time></trkpt><trkpt lat="41.9337056" lon="12.520406"><ele>32.0</ele><time>2026-04-22T06:43:11.274Z</time></trkpt><trkpt lat="41.9337769" lon="12.5203861"><ele>33.14285714285714</ele><time>2026-04-22T06:43:14.273Z</time></trkpt><trkpt lat="41.933794" lon="12.5202986"><ele>34.285714285714285</ele><time>2026-04-22T06:43:18.273Z</time></trkpt><trkpt lat="41.9338399" lon="12.5202342"><ele>35.42857142857143</ele><time>2026-04-22T06:43:24.274Z</time></trkpt><trkpt lat="41.9339031" lon="12.5202276"><ele>36.57142857142857</ele><time>2026-04-22T06:43:31.274Z</time></trkpt><trkpt lat="41.933973" lon="12.5201817"><ele>37.714285714285715</ele><time>2026-04-22T06:43:36.274Z</time></trkpt><trkpt lat="41.9340392" lon="12.5201286"><ele>38.857142857142854</ele><time>2026-04-22T06:43:40.274Z</time></trkpt><trkpt lat="41.9341042" lon="12.520062"><ele>40.0</ele><time>2026-04-22T06:43:43.274Z</time></trkpt><trkpt lat="41.9341459" lon="12.5199896"><ele>40.0</ele><time>2026-04-22T06:43:46.273Z</time></trkpt><trkpt lat="41.9341942" lon="12.5199197"><ele>40.0</ele><time>2026-04-22T06:43:50.274Z</time></trkpt><trkpt lat="41.9342445" lon="12.5198561"><ele>40.0</ele><time>2026-04-22T06:43:54.273Z</time></trkpt><trkpt lat="41.9342976" lon="12.5197918"><ele>40.0</ele><time>2026-04-22T06:44:00.274Z</time></trkpt><trkpt lat="41.9342903" lon="12.5196963"><ele>40.0</ele><time>2026-04-22T06:44:09.274Z</time></trkpt><trkpt lat="41.9342999" lon="12.5196031"><ele>40.0</ele><time>2026-04-22T06:44:13.273Z</time></trkpt><trkpt lat="41.9343134" lon="12.5194973"><ele>40.0</ele><time>2026-04-22T06:44:16.273Z</time></trkpt><trkpt lat="41.934322" lon="12.5194086"><ele>42.0</ele><time>2026-04-22T06:44:20.274Z</time></trkpt><trkpt lat="41.9343271" lon="12.5192917"><ele>42.0</ele><time>2026-04-22T06:44:23.274Z</time></trkpt><trkpt lat="41.934336" lon="12.519187"><ele>42.0</ele><time>2026-04-22T06:44:26.274Z</time></trkpt><trkpt lat="41.9343945" lon="12.5191195"><ele>42.0</ele><time>2026-04-22T06:44:31.273Z</time></trkpt></trkseg></trk></gpx>